Time;durP1;ratioP1;P1;durP2;ratioP2;P2;SDS_P1;SDS_P2;PMS_P1;PMS_P2;Temp;Humidity;BMP_temperature;BMP_pressure;BME280_temperature;BME280_humidity;BME280_pressure;Samples;Min_cycle;Max_cycle;Signal;HPM_P1;HPM_P2
2021/08/18 00:00:23;;;;;;;9.78;5.85;;;;;;;13.75;66.68;98712.95;2282549;77;20960;-83
2021/08/18 00:03:27;;;;;;;11.65;5.05;;;;;;;13.70;66.86;98710.78;2261375;78;20916;-83
2021/08/18 00:06:27;;;;;;;8.78;5.60;;;;;;;13.65;66.90;98716.05;2282232;77;20884;-82
2021/08/18 00:09:28;;;;;;;9.73;5.08;;;;;;;13.60;67.06;98716.93;2282269;77;21324;-81
2021/08/18 00:12:28;;;;;;;9.28;5.50;;;;;;;13.53;67.09;98716.07;2282286;77;21336;-83
2021/08/18 00:15:29;;;;;;;9.83;5.15;;;;;;;13.47;67.29;98721.33;2282176;77;21090;-83
2021/08/18 00:18:29;;;;;;;14.05;5.40;;;;;;;13.43;67.59;98719.59;2282272;77;20932;-81
2021/08/18 00:21:30;;;;;;;7.15;5.20;;;;;;;13.35;67.62;98734.02;2282001;78;20885;-82
2021/08/18 00:24:30;;;;;;;9.13;5.37;;;;;;;13.29;67.86;98734.46;2282129;77;21113;-82
2021/08/18 00:27:31;;;;;;;11.68;6.25;;;;;;;13.25;67.96;98734.03;2281117;77;21347;-81
2021/08/18 00:30:31;;;;;;;13.55;5.22;;;;;;;13.20;68.00;98734.03;2218265;78;20928;-81
2021/08/18 00:33:32;;;;;;;11.85;5.90;;;;;;;13.16;68.38;98735.31;2281867;77;21109;-83
2021/08/18 00:36:32;;;;;;;8.45;5.20;;;;;;;13.12;68.28;98732.25;2278881;77;20921;-82
2021/08/18 00:39:33;;;;;;;9.60;4.97;;;;;;;13.09;68.47;98727.88;2278447;78;20908;-81
2021/08/18 00:42:33;;;;;;;7.75;5.03;;;;;;;13.07;68.46;98730.50;2278590;78;20932;-83
2021/08/18 00:45:34;;;;;;;7.60;5.70;;;;;;;13.08;68.51;98732.69;2278566;78;21277;-83
2021/08/18 00:48:34;;;;;;;7.95;5.75;;;;;;;13.05;68.65;98732.69;2278536;78;20946;-82
2021/08/18 00:51:35;;;;;;;8.33;5.60;;;;;;;13.02;68.64;98735.31;2278408;78;20944;-82
2021/08/18 00:54:35;;;;;;;17.25;6.17;;;;;;;13.03;68.59;98735.31;2278477;78;20916;-85
2021/08/18 00:57:36;;;;;;;8.33;5.70;;;;;;;13.04;68.60;98739.67;2278540;78;21305;-82
2021/08/18 01:00:37;;;;;;;11.38;6.28;;;;;;;13.05;68.54;98745.35;2278199;78;20948;-84
2021/08/18 01:03:37;;;;;;;11.03;5.90;;;;;;;13.02;68.84;98747.09;2278684;78;20916;-83
2021/08/18 01:06:41;;;;;;;12.37;6.10;;;;;;;13.01;68.77;98738.37;2278477;78;20952;-82
2021/08/18 01:09:42;;;;;;;10.23;6.17;;;;;;;13.00;68.87;98726.55;2278424;78;20965;-81
2021/08/18 01:12:42;;;;;;;12.20;5.95;;;;;;;12.98;69.07;98744.88;2278425;78;20936;-83
2021/08/18 01:15:44;;;;;;;10.90;6.00;;;;;;;12.97;68.91;98739.64;2278435;78;20948;-84
2021/08/18 01:18:44;;;;;;;9.63;6.17;;;;;;;12.93;69.06;98740.08;2278620;78;20889;-83
2021/08/18 01:21:45;;;;;;;8.13;5.37;;;;;;;12.90;69.12;98748.37;2278690;78;21245;-83
2021/08/18 01:24:45;;;;;;;13.20;6.10;;;;;;;12.87;69.44;98737.45;2278796;78;20960;-85
2021/08/18 01:27:46;;;;;;;68.02;10.20;;;;;;;12.85;69.28;98730.46;2278381;78;20916;-82
2021/08/18 01:30:47;;;;;;;9.80;6.25;;;;;;;12.84;69.50;98730.02;2278070;78;20940;-86
2021/08/18 01:33:47;;;;;;;10.68;6.40;;;;;;;12.79;69.60;98720.85;2278605;78;20956;-83
2021/08/18 01:36:48;;;;;;;9.13;5.95;;;;;;;12.73;69.53;98729.58;2278241;78;20992;-81
2021/08/18 01:39:48;;;;;;;12.65;6.65;;;;;;;12.74;69.68;98731.76;2278583;78;21292;-85
2021/08/18 01:42:49;;;;;;;10.98;6.03;;;;;;;12.72;69.58;98731.76;2277934;78;20960;-81
2021/08/18 01:45:49;;;;;;;9.23;6.33;;;;;;;12.73;69.80;98740.48;2278018;78;20938;-81
2021/08/18 01:48:49;;;;;;;7.50;5.50;;;;;;;12.71;69.66;98740.92;2278312;78;20904;-83
2021/08/18 01:51:50;;;;;;;10.68;6.55;;;;;;;12.66;69.84;98738.30;2278178;78;21324;-82
2021/08/18 01:54:50;;;;;;;8.53;6.15;;;;;;;12.62;69.91;98739.16;2278236;78;20916;-81
2021/08/18 01:57:51;;;;;;;10.63;6.15;;;;;;;12.59;70.27;98733.92;2278429;78;20940;-83
2021/08/18 02:00:51;;;;;;;9.60;5.97;;;;;;;12.57;70.18;98733.04;2278011;78;21159;-81
2021/08/18 02:03:52;;;;;;;8.05;5.37;;;;;;;12.59;70.11;98740.47;2278228;78;20901;-82
2021/08/18 02:06:53;;;;;;;10.23;6.10;;;;;;;12.59;70.41;98737.84;2278302;78;20870;-83
2021/08/18 02:09:53;;;;;;;12.47;6.15;;;;;;;12.60;70.44;98733.48;2278507;78;21335;-82
2021/08/18 02:12:54;;;;;;;15.88;6.67;;;;;;;12.61;70.43;98735.23;2278204;78;21367;-84
2021/08/18 02:15:54;;;;;;;15.35;6.42;;;;;;;12.65;70.67;98737.86;2278327;78;20916;-83
2021/08/18 02:18:55;;;;;;;12.18;6.85;;;;;;;12.73;70.37;98736.56;2278227;78;20889;-83
2021/08/18 02:21:55;;;;;;;6.97;5.62;;;;;;;12.78;70.37;98735.26;2278516;78;21297;-82
2021/08/18 02:24:56;;;;;;;8.65;6.17;;;;;;;12.84;70.22;98735.27;2278194;78;21289;-82
2021/08/18 02:27:56;;;;;;;12.60;6.28;;;;;;;12.90;70.36;98735.27;2278091;78;20918;-82
2021/08/18 02:30:58;;;;;;;15.63;6.47;;;;;;;12.94;70.13;98730.47;2277710;78;20999;-82
2021/08/18 02:33:58;;;;;;;9.75;6.10;;;;;;;12.98;70.00;98730.91;2278322;78;20921;-82
2021/08/18 02:36:59;;;;;;;11.15;6.72;;;;;;;13.01;69.92;98720.46;2280983;77;20972;-82
2021/08/18 02:39:59;;;;;;;8.55;6.05;;;;;;;13.03;69.90;98726.58;2281909;77;20951;-82
2021/08/18 02:43:02;;;;;;;11.33;6.87;;;;;;;13.05;69.83;98726.14;2282061;77;21304;-83
2021/08/18 02:46:03;;;;;;;11.85;6.47;;;;;;;13.10;69.91;98727.45;2281647;78;20988;-81
2021/08/18 02:49:03;;;;;;;9.18;6.70;;;;;;;13.13;69.63;98728.32;2281923;77;20908;-85
2021/08/18 02:52:06;;;;;;;11.38;6.37;;;;;;;13.18;69.56;98731.84;2282052;78;20970;-82
2021/08/18 02:55:06;;;;;;;12.35;6.25;;;;;;;13.22;69.32;98728.79;2282009;78;20885;-81
2021/08/18 02:58:07;;;;;;;10.70;6.10;;;;;;;13.25;69.36;98728.78;2281784;78;20924;-79
2021/08/18 03:01:08;;;;;;;10.18;6.87;;;;;;;13.25;69.24;98728.34;2280852;78;20924;-81
2021/08/18 03:04:08;;;;;;;11.48;5.95;;;;;;;13.26;69.25;98723.55;2281207;78;20901;-82
2021/08/18 03:07:09;;;;;;;10.72;6.22;;;;;;;13.28;69.33;98728.34;2281805;77;20920;-82
2021/08/18 03:10:09;;;;;;;9.83;6.28;;;;;;;13.29;69.31;98724.84;2281639;77;21271;-81
2021/08/18 03:13:10;;;;;;;10.45;7.37;;;;;;;13.28;69.31;98723.10;2281764;77;20979;-84
2021/08/18 03:16:10;;;;;;;10.23;5.83;;;;;;;13.28;69.34;98721.80;2281828;77;21052;-82
2021/08/18 03:19:11;;;;;;;11.93;6.15;;;;;;;13.28;69.30;98725.72;2281970;77;20932;-82
2021/08/18 03:22:11;;;;;;;14.53;5.85;;;;;;;13.28;69.23;98725.72;2281835;77;20947;-82
2021/08/18 03:25:12;;;;;;;11.20;5.67;;;;;;;13.30;69.24;98724.41;2282293;77;20912;-83
2021/08/18 03:28:12;;;;;;;11.85;6.70;;;;;;;13.31;69.23;98737.52;2282399;77;20924;-81
2021/08/18 03:31:13;;;;;;;9.35;6.35;;;;;;;13.33;69.29;98737.08;2281630;77;21363;-81
2021/08/18 03:34:13;;;;;;;13.58;6.60;;;;;;;13.35;69.19;98737.95;2282902;77;20956;-80
2021/08/18 03:37:14;;;;;;;15.28;7.25;;;;;;;14.48;71.16;98737.64;2281007;77;21007;-81
2021/08/18 03:40:14;;;;;;;12.07;6.75;;;;;;;15.32;67.73;98740.14;2279410;78;20943;-79
2021/08/18 03:43:15;;;;;;;11.57;6.87;;;;;;;15.47;65.78;98736.05;2278564;78;20912;-81
2021/08/18 03:46:15;;;;;;;15.10;7.08;;;;;;;16.19;64.93;98743.66;2277908;78;20881;-81
2021/08/18 03:49:16;;;;;;;18.40;6.97;;;;;;;16.44;63.32;98741.58;2278103;78;20904;-80
2021/08/18 03:52:16;;;;;;;16.55;7.10;;;;;;;16.68;62.70;98743.52;2277950;78;20923;-81
2021/08/18 03:55:17;;;;;;;17.42;6.05;;;;;;;17.14;61.28;98738.42;2278249;78;20909;-81
2021/08/18 03:58:17;;;;;;;10.18;6.55;;;;;;;17.34;60.33;98738.99;2277778;78;21277;-81
2021/08/18 04:01:18;;;;;;;13.78;6.33;;;;;;;17.37;60.35;98740.70;2278200;78;20971;-82
2021/08/18 04:04:18;;;;;;;146.65;18.25;;;;;;;17.57;59.43;98749.14;2278653;78;20952;-82
2021/08/18 04:07:19;;;;;;;54.18;10.25;;;;;;;17.79;58.81;98741.73;2277925;78;20925;-82
2021/08/18 04:10:19;;;;;;;85.35;14.18;;;;;;;17.60;58.42;98749.54;2277758;78;20917;-82
2021/08/18 04:13:20;;;;;;;12.43;6.92;;;;;;;17.46;58.80;98742.73;2277889;78;20932;-81
2021/08/18 04:16:20;;;;;;;20.37;6.92;;;;;;;17.70;58.75;98742.78;2277786;78;21281;-82
2021/08/18 04:19:21;;;;;;;26.87;6.75;;;;;;;17.89;58.12;98747.27;2278012;78;20955;-84
2021/08/18 04:22:21;;;;;;;21.37;6.85;;;;;;;18.01;57.80;98744.84;2278079;78;20976;-83
2021/08/18 04:25:22;;;;;;;11.63;6.70;;;;;;;18.28;57.25;98734.20;2278344;78;20893;-82
2021/08/18 04:28:22;;;;;;;13.75;6.65;;;;;;;18.58;56.31;98741.92;2278367;78;20948;-80
2021/08/18 04:31:23;;;;;;;15.35;6.50;;;;;;;18.66;55.88;98745.30;2276446;78;20932;-81
2021/08/18 04:34:23;;;;;;;13.38;6.30;;;;;;;18.77;55.30;98745.92;2277128;78;20920;-81
2021/08/18 04:37:24;;;;;;;12.63;6.45;;;;;;;18.86;55.10;98748.36;2277179;78;21047;-82
2021/08/18 04:40:25;;;;;;;9.35;5.87;;;;;;;18.91;54.92;98747.80;2277873;78;20928;-82
2021/08/18 04:43:25;;;;;;;12.78;6.62;;;;;;;18.91;54.54;98745.16;2277875;78;20947;-81
2021/08/18 04:46:27;;;;;;;17.07;6.53;;;;;;;18.94;54.55;98745.08;2276960;78;20905;-81
2021/08/18 04:49:27;;;;;;;9.90;5.37;;;;;;;18.89;54.13;98741.67;2278663;78;21355;-80
2021/08/18 04:52:28;;;;;;;14.80;6.10;;;;;;;19.00;53.99;98747.58;2278523;78;20983;-80
2021/08/18 04:55:28;;;;;;;7.33;5.80;;;;;;;18.75;54.39;98747.73;2277889;78;20873;-84
2021/08/18 04:58:29;;;;;;;9.53;6.12;;;;;;;18.41;54.67;98747.56;2277224;78;20908;-81
2021/08/18 05:01:29;;;;;;;9.88;5.97;;;;;;;18.21;55.55;98746.66;2276409;78;20968;-80
2021/08/18 05:04:30;;;;;;;10.28;5.87;;;;;;;17.95;56.74;98748.92;2277249;78;20911;-81
2021/08/18 05:07:30;;;;;;;10.35;6.20;;;;;;;18.01;56.83;98748.34;2276614;78;20932;-79
2021/08/18 05:10:31;;;;;;;11.78;6.45;;;;;;;18.21;57.29;98751.08;2277563;78;20912;-82
2021/08/18 05:13:31;;;;;;;11.97;6.50;;;;;;;18.51;56.66;98748.23;2277427;78;21567;-78
2021/08/18 05:16:32;;;;;;;16.82;6.85;;;;;;;18.82;56.53;98744.05;2278242;78;20956;-81
2021/08/18 05:19:33;;;;;;;12.93;6.80;;;;;;;19.20;55.58;98752.88;2278883;78;20929;-80
2021/08/18 05:22:33;;;;;;;9.53;6.62;;;;;;;19.39;54.66;98752.84;2279294;78;20905;-80
2021/08/18 05:25:34;;;;;;;14.47;6.45;;;;;;;19.49;53.84;98758.78;2278827;78;20948;-79
2021/08/18 05:28:34;;;;;;;11.65;6.70;;;;;;;19.69;53.24;98756.52;2278895;78;20912;-79
2021/08/18 05:31:35;;;;;;;11.78;6.03;;;;;;;19.65;52.58;98761.02;2278279;78;20968;-79
2021/08/18 05:34:35;;;;;;;29.42;7.30;;;;;;;19.65;52.78;98755.73;2279638;78;20908;-82
2021/08/18 05:37:36;;;;;;;10.40;7.20;;;;;;;19.55;52.77;98756.88;2280475;78;20968;-81
2021/08/18 05:40:36;;;;;;;24.05;12.90;;;;;;;19.56;52.25;98761.27;2281151;78;20912;-82
2021/08/18 05:43:37;;;;;;;18.62;10.43;;;;;;;19.67;52.06;98763.63;2281378;77;20920;-81
2021/08/18 05:46:38;;;;;;;13.32;7.17;;;;;;;19.82;52.13;98768.98;2281110;77;20920;-82
2021/08/18 05:49:38;;;;;;;11.63;7.80;;;;;;;19.56;51.75;98772.30;2281485;78;21272;-80
2021/08/18 05:52:39;;;;;;;9.80;7.20;;;;;;;19.40;52.68;98777.08;2281622;78;20975;-80
2021/08/18 05:55:39;;;;;;;13.10;7.17;;;;;;;19.58;52.24;98774.01;2280843;77;20925;-81
2021/08/18 05:58:39;;;;;;;9.28;6.50;;;;;;;19.88;51.87;98768.81;2280971;77;20928;-82
2021/08/18 06:01:40;;;;;;;10.35;8.10;;;;;;;19.82;51.34;98770.30;2279673;77;20991;-81
2021/08/18 06:04:40;;;;;;;13.80;7.78;;;;;;;19.32;51.29;98768.01;2279952;77;21304;-81
2021/08/18 06:07:41;;;;;;;11.20;7.70;;;;;;;18.77;52.13;98763.98;2280259;78;20901;-80
2021/08/18 06:10:42;;;;;;;9.73;7.62;;;;;;;18.64;53.27;98759.00;2280869;77;20944;-82
2021/08/18 06:13:43;;;;;;;11.38;7.20;;;;;;;18.64;53.27;98759.00;2281925;78;21365;-83
2021/08/18 06:16:43;;;;;;;9.73;7.45;;;;;;;18.76;53.78;98766.66;2280934;77;20925;-81
2021/08/18 06:19:44;;;;;;;13.70;7.97;;;;;;;19.27;53.07;98770.35;2281390;77;21271;-81
2021/08/18 06:22:45;;;;;;;10.82;7.03;;;;;;;19.50;52.06;98765.81;2281421;78;20917;-81
2021/08/18 06:25:45;;;;;;;9.75;7.20;;;;;;;19.50;52.32;98773.30;2281733;77;20904;-81
2021/08/18 06:28:45;;;;;;;9.25;7.22;;;;;;;19.51;52.15;98772.39;2280661;77;20944;-81
2021/08/18 06:31:46;;;;;;;11.88;6.78;;;;;;;19.38;52.16;98769.18;2280761;77;20963;-80
2021/08/18 06:34:46;;;;;;;16.12;8.15;;;;;;;19.67;51.79;98771.12;2281001;77;20939;-81
2021/08/18 06:37:47;;;;;;;13.03;10.85;;;;;;;19.60;51.97;98770.87;2281095;77;20948;-81
2021/08/18 06:40:47;;;;;;;16.25;9.48;;;;;;;20.19;51.41;98776.38;2281084;77;21330;-80
2021/08/18 06:43:48;;;;;;;107.60;15.95;;;;;;;19.97;50.50;98769.92;2281182;77;21283;-81
2021/08/18 06:46:48;;;;;;;11.80;7.87;;;;;;;19.99;49.89;98781.35;2279749;77;20943;-82
2021/08/18 06:49:49;;;;;;;10.90;7.78;;;;;;;19.63;50.89;98779.19;2279059;78;20908;-81
2021/08/18 06:52:49;;;;;;;10.43;8.20;;;;;;;19.11;51.39;98772.95;2280268;77;20982;-81
2021/08/18 06:55:50;;;;;;;13.83;7.92;;;;;;;19.27;51.93;98781.81;2280482;77;20957;-81
2021/08/18 06:58:50;;;;;;;13.80;7.97;;;;;;;19.30;52.27;98779.09;2281120;77;21239;-82
2021/08/18 07:01:51;;;;;;;15.90;8.63;;;;;;;19.10;51.91;98781.34;2280532;77;21363;-79
2021/08/18 07:04:51;;;;;;;11.43;8.03;;;;;;;19.18;52.35;98781.16;2281134;77;20952;-82
2021/08/18 07:07:52;;;;;;;10.15;8.20;;;;;;;19.55;51.54;98780.70;2281759;77;20904;-79
2021/08/18 07:10:53;;;;;;;10.58;8.00;;;;;;;19.67;51.01;98781.72;2281744;77;20940;-81
2021/08/18 07:13:54;;;;;;;10.75;7.50;;;;;;;19.37;50.64;98779.35;2281382;77;20923;-81
2021/08/18 07:16:54;;;;;;;10.00;8.03;;;;;;;19.33;50.47;98784.76;2281171;78;20924;-81
2021/08/18 07:19:55;;;;;;;15.83;7.62;;;;;;;19.07;50.75;98776.98;2281384;77;20964;-80
2021/08/18 07:22:55;;;;;;;13.08;8.35;;;;;;;19.57;50.66;98776.23;2281124;78;21257;-80
2021/08/18 07:25:56;;;;;;;11.30;7.67;;;;;;;19.89;49.31;98775.85;2281234;78;21303;-81
2021/08/18 07:28:56;;;;;;;11.00;7.85;;;;;;;20.06;48.20;98774.97;2281404;77;20880;-82
2021/08/18 07:31:57;;;;;;;15.68;8.18;;;;;;;20.09;48.00;98780.19;2281243;77;20968;-81
2021/08/18 07:34:57;;;;;;;9.20;8.05;;;;;;;19.75;48.25;98781.97;2283047;77;20952;-80
2021/08/18 07:37:58;;;;;;;15.13;10.75;;;;;;;19.32;48.58;98782.56;2278979;77;21340;-80
2021/08/18 07:41:01;;;;;;;15.43;10.38;;;;;;;19.13;48.92;98777.30;2277980;78;20905;-82
2021/08/18 07:44:02;;;;;;;16.67;14.15;;;;;;;19.10;49.00;98762.81;2277240;78;20920;-81
2021/08/18 07:47:03;;;;;;;17.82;10.32;;;;;;;19.48;48.87;98778.22;2277500;78;21277;-82
2021/08/18 07:53:06;;;;;;;10.35;8.20;;;;;;;19.70;47.30;98769.72;2256565;78;20947;-83
2021/08/18 07:56:07;;;;;;;24.18;8.20;;;;;;;19.46;47.98;98774.28;2278962;78;21326;-79
2021/08/18 07:59:07;;;;;;;12.80;8.13;;;;;;;19.25;48.55;98773.03;2278478;78;20933;-82
2021/08/18 08:02:08;;;;;;;12.47;7.65;;;;;;;19.55;48.91;98770.11;2277165;78;21011;-83
2021/08/18 08:05:09;;;;;;;11.18;7.72;;;;;;;19.95;47.97;98763.80;2277088;78;20959;-82
2021/08/18 08:08:10;;;;;;;12.93;7.45;;;;;;;20.11;48.31;98764.25;2276418;78;20955;-81
2021/08/18 08:11:11;;;;;;;8.05;7.25;;;;;;;20.77;47.14;98756.13;2277781;78;20951;-83
2021/08/18 08:14:11;;;;;;;9.00;7.40;;;;;;;20.91;45.63;98752.63;2277479;78;20917;-81
2021/08/18 08:17:12;;;;;;;7.55;6.85;;;;;;;21.17;45.91;98750.94;2277777;78;21344;-83
2021/08/18 08:20:13;;;;;;;11.83;7.75;;;;;;;21.28;45.17;98751.48;2278251;78;20952;-84
2021/08/18 08:23:13;;;;;;;11.15;7.45;;;;;;;20.95;45.70;98752.95;2277875;78;20909;-81
2021/08/18 08:26:14;;;;;;;13.10;7.72;;;;;;;21.30;45.57;98752.30;2277795;78;20952;-80
2021/08/18 08:29:15;;;;;;;11.18;8.20;;;;;;;21.04;44.89;98746.94;2276825;78;21019;-81
2021/08/18 08:32:15;;;;;;;12.65;7.97;;;;;;;20.66;44.59;98748.96;2276746;78;20976;-80
2021/08/18 08:35:16;;;;;;;9.98;7.50;;;;;;;20.27;46.03;98746.55;2276666;78;21082;-80
2021/08/18 08:38:17;;;;;;;13.85;8.78;;;;;;;20.42;45.43;98751.89;2276423;77;21371;-81
2021/08/18 08:41:18;;;;;;;11.85;8.63;;;;;;;20.12;45.97;98746.98;2277324;78;20952;-80
2021/08/18 08:44:18;;;;;;;12.23;8.15;;;;;;;20.11;46.63;98744.37;2277688;78;20893;-81
2021/08/18 08:47:19;;;;;;;8.83;6.80;;;;;;;20.28;46.43;98744.30;2278145;78;20936;-83
2021/08/18 08:50:19;;;;;;;12.45;7.05;;;;;;;20.61;45.16;98737.17;2277462;78;20913;-81
2021/08/18 08:53:20;;;;;;;9.30;7.37;;;;;;;20.67;45.72;98745.40;2277590;78;20983;-81
2021/08/18 08:56:20;;;;;;;8.95;6.87;;;;;;;20.70;45.17;98745.30;2277901;78;21257;-82
2021/08/18 08:59:21;;;;;;;13.48;8.08;;;;;;;21.18;44.76;98734.09;2277589;78;20944;-82
2021/08/18 09:02:21;;;;;;;12.95;7.87;;;;;;;21.60;44.09;98732.69;2277347;78;21003;-81
2021/08/18 09:05:22;;;;;;;11.97;7.80;;;;;;;22.07;43.01;98732.86;2278188;78;20956;-78
2021/08/18 09:08:23;;;;;;;11.68;7.92;;;;;;;21.93;42.96;98733.78;2277535;78;20997;-81
2021/08/18 09:11:23;;;;;;;15.23;7.95;;;;;;;21.95;43.02;98731.94;2277633;78;21331;-82
2021/08/18 09:14:24;;;;;;;10.93;7.00;;;;;;;21.79;43.37;98728.09;2277929;78;20943;-82
2021/08/18 09:17:24;;;;;;;10.40;7.35;;;;;;;21.28;42.73;98728.46;2278280;78;20960;-82
2021/08/18 09:20:25;;;;;;;14.50;10.20;;;;;;;21.04;44.37;98729.69;2277271;78;20951;-82
2021/08/18 09:23:25;;;;;;;13.48;8.18;;;;;;;21.05;42.20;98724.79;2277510;78;20944;-83
2021/08/18 09:26:26;;;;;;;8.38;7.47;;;;;;;20.85;43.57;98718.80;2257278;78;21308;-81
2021/08/18 09:29:27;;;;;;;9.90;7.22;;;;;;;21.20;43.09;98709.23;2277358;78;20963;-80
2021/08/18 09:32:28;;;;;;;10.88;6.72;;;;;;;21.52;42.09;98717.47;2277453;78;20984;-80
2021/08/18 09:35:29;;;;;;;12.73;7.45;;;;;;;21.72;41.83;98714.61;2277919;78;20939;-82
2021/08/18 09:38:31;;;;;;;9.88;7.37;;;;;;;21.40;42.17;98713.03;2279485;78;20924;-80
2021/08/18 09:41:31;;;;;;;14.18;6.72;;;;;;;20.99;43.12;98713.45;2281295;77;20968;-80
2021/08/18 09:44:34;;;;;;;8.75;7.08;;;;;;;20.57;43.14;98722.72;2281424;78;21268;-81
2021/08/18 09:47:35;;;;;;;8.50;6.80;;;;;;;20.62;44.04;98726.10;2281382;78;20904;-81
2021/08/18 09:50:35;;;;;;;8.50;6.87;;;;;;;21.17;43.06;98725.72;2281119;78;20947;-81
2021/08/18 09:53:36;;;;;;;10.00;6.30;;;;;;;21.24;41.12;98722.84;2280129;78;20936;-80
2021/08/18 09:56:36;;;;;;;7.33;6.62;;;;;;;21.15;40.14;98720.92;2280763;77;20932;-81
2021/08/18 09:59:43;;;;;;;8.73;6.42;;;;;;;21.38;41.70;98715.75;2260586;78;20947;-81
2021/08/18 10:02:41;;;;;;;10.55;7.15;;;;;;;21.88;40.57;98724.64;2280946;77;21012;-81
2021/08/18 10:05:42;;;;;;;8.95;6.70;;;;;;;21.88;41.23;98714.02;2281806;78;20912;-80
2021/08/18 10:08:52;;;;;;;10.75;6.67;;;;;;;22.43;39.87;98723.11;2280434;77;20954;-79
2021/08/18 10:12:02;;;;;;;15.28;6.45;;;;;;;22.85;38.40;98724.16;2280872;78;20960;-79
2021/08/18 10:15:02;;;;;;;10.35;6.60;;;;;;;22.90;38.92;98708.48;2280473;77;20936;-80
2021/08/18 10:18:03;;;;;;;13.32;6.50;;;;;;;23.12;39.08;98710.67;2281352;77;20924;-81
2021/08/18 10:21:03;;;;;;;8.93;6.37;;;;;;;23.31;38.33;98702.32;2281445;77;20936;-79
2021/08/18 10:24:04;;;;;;;8.03;6.65;;;;;;;23.11;38.88;98706.27;2282060;77;20920;-82
2021/08/18 10:27:06;;;;;;;6.47;5.87;;;;;;;23.17;38.78;98700.70;2281340;78;20913;-80
2021/08/18 10:30:08;;;;;;;13.68;6.50;;;;;;;23.48;37.09;98691.85;2259198;78;20861;-81
2021/08/18 10:33:08;;;;;;;9.80;6.28;;;;;;;23.02;37.82;98697.33;2280668;77;20932;-78
2021/08/18 10:36:09;;;;;;;7.42;6.37;;;;;;;22.79;38.36;98704.42;2280411;77;20912;-80
2021/08/18 10:39:10;;;;;;;7.37;6.40;;;;;;;22.78;37.24;98697.36;2276993;78;21059;-80
2021/08/18 10:42:11;;;;;;;7.17;6.47;;;;;;;23.02;37.13;98703.98;2276836;78;20940;-81
2021/08/18 10:45:12;;;;;;;17.15;10.10;;;;;;;22.97;36.95;98696.66;2277671;78;20972;-80
2021/08/18 10:48:13;;;;;;;8.35;7.12;;;;;;;23.13;37.95;98684.45;2277338;78;20881;-81
2021/08/18 10:51:14;;;;;;;10.40;6.53;;;;;;;23.41;37.34;98693.05;2277324;78;20909;-80
2021/08/18 10:54:15;;;;;;;8.00;7.20;;;;;;;23.66;36.78;98690.69;2277411;78;21256;-79
2021/08/18 10:57:16;;;;;;;7.12;6.40;;;;;;;23.91;37.59;98691.34;2276894;78;20916;-80
2021/08/18 11:03:22;;;;;;;9.20;6.45;;;;;;;24.19;36.15;98685.62;2257669;78;20888;-80
2021/08/18 11:06:23;;;;;;;10.00;7.28;;;;;;;24.30;35.53;98680.73;2277416;78;20932;-79
2021/08/18 11:09:24;;;;;;;7.33;6.12;;;;;;;24.45;35.14;98677.81;2276287;78;20892;-81
2021/08/18 11:12:25;;;;;;;16.97;6.85;;;;;;;24.31;36.52;98682.94;2276294;78;21704;-80
2021/08/18 11:15:29;;;;;;;8.10;6.20;;;;;;;24.06;36.12;98681.33;2277004;78;21303;-80
2021/08/18 11:18:30;;;;;;;7.90;5.95;;;;;;;23.87;36.89;98675.09;2276596;78;20929;-80
2021/08/18 11:21:31;;;;;;;9.70;6.72;;;;;;;23.65;37.36;98678.30;2276434;78;20927;-80
2021/08/18 11:24:32;;;;;;;8.58;6.75;;;;;;;22.95;38.59;98674.56;2276569;78;20967;-81
2021/08/18 11:27:33;;;;;;;12.15;6.55;;;;;;;22.78;38.66;98676.08;2276998;78;21185;-80
2021/08/18 11:30:34;;;;;;;7.42;5.83;;;;;;;22.93;38.04;98669.30;2276780;78;20904;-80
2021/08/18 11:33:35;;;;;;;8.48;5.97;;;;;;;23.03;38.70;98669.78;2276801;78;20987;-82
2021/08/18 11:36:43;;;;;;;7.75;6.40;;;;;;;23.43;38.09;98662.34;2276734;78;20940;-81
2021/08/18 11:39:39;;;;;;;11.28;6.10;;;;;;;23.20;38.61;98670.81;2276412;78;21004;-80
2021/08/18 11:42:40;;;;;;;8.50;6.08;;;;;;;23.36;37.97;98671.03;2276571;78;20893;-81
2021/08/18 11:45:43;;;;;;;7.20;6.08;;;;;;;23.65;37.46;98663.18;2275228;78;20912;-80
2021/08/18 11:48:44;;;;;;;7.87;5.92;;;;;;;23.67;38.14;98669.30;2276825;78;20955;-81
2021/08/18 11:51:45;;;;;;;8.03;5.90;;;;;;;23.72;36.99;98669.11;2277636;78;21005;-80
2021/08/18 11:54:46;;;;;;;8.03;5.72;;;;;;;23.61;36.87;98665.58;2277240;78;21327;-80
2021/08/18 11:57:47;;;;;;;6.70;5.97;;;;;;;23.78;37.34;98660.37;2277045;78;20925;-80
2021/08/18 12:00:49;;;;;;;8.10;6.25;;;;;;;24.05;36.85;98662.27;2276944;78;21006;-80
2021/08/18 12:03:51;;;;;;;10.23;5.90;;;;;;;23.86;35.46;98661.36;2276617;78;20906;-80
2021/08/18 12:06:54;;;;;;;;;;;;;;;23.72;36.74;98660.64;2279201;78;20971;-78
2021/08/18 12:09:55;;;;;;;9.73;4.40;;;;;;;24.10;37.23;98656.25;2277016;78;20137;-80
2021/08/18 12:12:56;;;;;;;5.22;4.72;;;;;;;24.09;35.71;98666.52;2276809;78;20968;-80
2021/08/18 12:15:57;;;;;;;5.87;5.17;;;;;;;23.98;35.83;98659.95;2276711;78;21689;-81
2021/08/18 12:18:58;;;;;;;7.83;4.78;;;;;;;23.83;35.24;98664.16;2276809;78;20907;-81
2021/08/18 12:21:59;;;;;;;9.08;5.47;;;;;;;23.74;35.75;98660.58;2277562;78;21257;-81
2021/08/18 12:25:00;;;;;;;12.47;5.60;;;;;;;23.41;35.78;98674.41;2278823;78;20921;-81
2021/08/18 12:28:01;;;;;;;8.88;5.47;;;;;;;23.10;36.64;98668.60;2279168;78;20885;-81
2021/08/18 12:31:02;;;;;;;7.35;5.40;;;;;;;23.01;36.41;98664.99;2278688;78;21439;-80
2021/08/18 12:34:03;;;;;;;5.72;5.12;;;;;;;23.04;37.46;98669.72;2277437;78;20948;-81
2021/08/18 12:37:04;;;;;;;5.95;5.35;;;;;;;23.09;37.06;98670.86;2276837;78;20909;-79
2021/08/18 12:40:07;;;;;;;7.42;4.33;;;;;;;22.95;36.35;98663.45;2277646;78;20968;-82
2021/08/18 12:43:11;;;;;;;9.80;5.60;;;;;;;22.74;36.35;98666.95;2278391;78;21016;-81
2021/08/18 12:46:13;;;;;;;5.47;4.83;;;;;;;22.65;37.11;98667.31;2278203;78;20937;-80
2021/08/18 12:49:14;;;;;;;4.75;4.33;;;;;;;22.93;36.28;98665.30;2278391;78;20968;-81
2021/08/18 12:52:16;;;;;;;5.30;4.80;;;;;;;22.99;36.16;98661.52;2279060;78;20968;-81
2021/08/18 12:55:18;;;;;;;6.22;5.33;;;;;;;22.91;36.73;98659.64;2278719;78;20954;-81
2021/08/18 12:58:18;;;;;;;6.50;4.78;;;;;;;22.78;36.22;98660.11;2278515;78;20947;-80
2021/08/18 13:04:24;;;;;;;5.95;5.20;;;;;;;22.42;36.85;98653.55;2258148;78;20940;-80
2021/08/18 13:07:25;;;;;;;6.67;4.97;;;;;;;22.38;38.42;98650.16;2278470;78;21004;-81
2021/08/18 13:10:26;;;;;;;6.00;5.40;;;;;;;22.32;38.75;98643.74;2278895;78;20913;-80
2021/08/18 13:13:28;;;;;;;6.40;5.20;;;;;;;22.12;38.88;98649.82;2279399;78;20956;-82
2021/08/18 13:16:28;;;;;;;7.75;4.70;;;;;;;22.66;38.11;98650.42;2279282;78;20916;-81
2021/08/18 13:19:30;;;;;;;6.30;4.75;;;;;;;22.78;36.95;98656.12;2279294;78;20963;-79
2021/08/18 13:22:32;;;;;;;5.33;4.83;;;;;;;22.77;36.75;98649.06;2279531;78;20905;-79
2021/08/18 13:25:33;;;;;;;5.80;5.20;;;;;;;22.88;36.74;98644.20;2280112;78;20951;-79
2021/08/18 13:28:34;;;;;;;10.08;5.67;;;;;;;22.58;36.83;98642.75;2279802;78;20897;-81
2021/08/18 13:31:35;;;;;;;5.75;5.12;;;;;;;22.21;37.65;98646.81;2279821;78;21003;-82
2021/08/18 13:34:36;;;;;;;5.12;4.65;;;;;;;22.25;38.50;98637.80;2279150;78;20960;-80
2021/08/18 13:37:37;;;;;;;4.55;4.15;;;;;;;22.36;37.99;98646.69;2280047;78;20940;-81
2021/08/18 13:40:38;;;;;;;6.30;4.92;;;;;;;22.69;37.45;98648.51;2278744;78;20917;-81
2021/08/18 13:43:39;;;;;;;6.17;4.80;;;;;;;22.95;37.80;98639.95;2280314;78;20932;-81
2021/08/18 13:46:42;;;;;;;9.15;4.95;;;;;;;23.09;37.09;98646.44;2279526;78;20974;-81
2021/08/18 13:49:43;;;;;;;5.17;4.67;;;;;;;23.11;37.14;98637.06;2279498;78;20984;-79
2021/08/18 13:52:45;;;;;;;39.25;8.13;;;;;;;23.06;37.71;98631.06;2277536;78;20936;-82
2021/08/18 13:55:46;;;;;;;4.78;4.28;;;;;;;23.63;37.46;98625.08;2278950;78;20929;-80
2021/08/18 13:58:47;;;;;;;7.12;4.80;;;;;;;23.75;37.15;98630.33;2279612;78;20929;-82
2021/08/18 14:01:49;;;;;;;5.37;4.85;;;;;;;23.55;37.57;98634.34;2280011;78;21039;-78
2021/08/18 14:04:50;;;;;;;10.68;5.00;;;;;;;23.68;36.99;98626.20;2279900;78;20961;-80
2021/08/18 14:07:51;;;;;;;6.87;5.50;;;;;;;23.63;37.55;98625.55;2279620;78;21249;-79
2021/08/18 14:10:53;;;;;;;10.82;5.55;;;;;;;23.49;37.39;98626.12;2279724;78;20928;-80
2021/08/18 14:13:54;;;;;;;6.12;5.15;;;;;;;23.38;37.02;98631.88;2279314;78;21324;-81